Time;durP1;ratioP1;P1;durP2;ratioP2;P2;SDS_P1;SDS_P2;PMS_P1;PMS_P2;Temp;Humidity;BMP_temperature;BMP_pressure;BME280_temperature;BME280_humidity;BME280_pressure;Samples;Min_cycle;Max_cycle;Signal;HPM_P1;HPM_P2
2022/03/15 00:01:34;;;;;;;34.90;21.40;;;5.80;99.90;;;;;;2602202;54;20033;31
2022/03/15 00:04:13;;;;;;;29.23;18.05;;;5.90;99.90;;;;;;2620830;46;20030;31
2022/03/15 00:06:51;;;;;;;26.93;17.30;;;5.80;99.90;;;;;;2602937;54;20038;31
2022/03/15 00:09:27;;;;;;;31.00;19.33;;;5.80;99.90;;;;;;2601974;54;21069;31
2022/03/15 00:12:05;;;;;;;25.52;17.08;;;5.90;99.90;;;;;;2602011;54;20090;31
2022/03/15 00:14:43;;;;;;;31.02;19.23;;;5.90;99.90;;;;;;2602026;54;20904;31
2022/03/15 00:17:20;;;;;;;28.77;18.35;;;6.00;99.90;;;;;;2621346;46;20962;31
2022/03/15 00:20:01;;;;;;;27.53;16.87;;;6.00;99.90;;;;;;2601975;54;20075;31
2022/03/15 00:22:41;;;;;;;29.27;17.40;;;6.10;99.90;;;;;;2609984;46;20261;31
2022/03/15 00:25:19;;;;;;;24.98;16.23;;;6.10;99.90;;;;;;2602918;54;20033;31
2022/03/15 00:27:55;;;;;;;26.63;16.85;;;6.20;99.90;;;;;;2602805;54;20026;31
2022/03/15 00:30:30;;;;;;;27.17;16.65;;;6.20;99.90;;;;;;2603020;54;20757;31
2022/03/15 00:33:08;;;;;;;;;;;6.20;99.90;;;;;;2602988;54;20048;31
2022/03/15 00:35:47;;;;;;;27.08;17.58;;;6.20;99.90;;;;;;2621006;46;21181;31
2022/03/15 00:38:21;;;;;;;23.65;16.58;;;6.20;99.90;;;;;;2602956;54;20033;31
2022/03/15 00:41:00;;;;;;;25.88;15.57;;;6.30;99.90;;;;;;2602030;54;20886;31
2022/03/15 00:43:40;;;;;;;27.00;17.10;;;6.40;99.90;;;;;;2602919;54;20885;31
2022/03/15 00:46:18;;;;;;;26.10;16.77;;;6.30;99.90;;;;;;2602689;54;20030;31
2022/03/15 00:48:52;;;;;;;25.27;16.38;;;6.40;99.90;;;;;;2602653;54;20027;31
2022/03/15 00:51:33;;;;;;;23.80;15.75;;;6.40;99.90;;;;;;2602736;54;20805;31
2022/03/15 00:54:10;;;;;;;22.48;15.00;;;6.40;99.90;;;;;;2601866;54;20031;31
2022/03/15 00:56:45;;;;;;;17.90;13.10;;;6.50;99.90;;;;;;2601503;54;20901;31
2022/03/15 00:59:21;;;;;;;19.40;13.10;;;6.50;99.90;;;;;;2601956;54;20018;31
2022/03/15 01:01:56;;;;;;;22.58;14.57;;;6.50;99.90;;;;;;2602437;54;20038;31
2022/03/15 01:04:35;;;;;;;21.17;13.82;;;6.60;99.90;;;;;;2601889;54;20861;31
2022/03/15 01:07:14;;;;;;;24.90;14.88;;;6.60;99.90;;;;;;2601479;54;20916;31
2022/03/15 01:09:49;;;;;;;18.00;12.25;;;6.70;99.90;;;;;;2601551;54;20026;31
2022/03/15 01:12:25;;;;;;;19.30;14.00;;;6.70;99.90;;;;;;2601734;54;20030;31
2022/03/15 01:17:51;;;;;;;26.30;16.23;;;6.70;99.90;;;;;;2602329;54;20030;31
2022/03/15 01:20:27;;;;;;;25.03;16.07;;;6.70;99.90;;;;;;2602872;54;20883;31
2022/03/15 01:23:08;;;;;;;22.07;14.23;;;6.70;99.90;;;;;;2602546;54;20328;31
2022/03/15 01:25:47;;;;;;;21.70;15.25;;;6.70;99.90;;;;;;2602416;54;20257;31
2022/03/15 01:28:22;;;;;;;26.38;15.93;;;6.70;99.90;;;;;;2601610;54;20889;31
2022/03/15 01:30:58;;;;;;;24.88;15.55;;;6.80;99.90;;;;;;2602693;54;20915;31
2022/03/15 01:33:33;;;;;;;25.83;13.60;;;6.80;99.90;;;;;;2602671;54;20042;31
2022/03/15 01:36:12;;;;;;;21.25;13.23;;;6.80;99.90;;;;;;2620979;46;20060;31
2022/03/15 01:38:53;;;;;;;24.97;15.80;;;6.80;99.90;;;;;;2602502;54;20073;31
2022/03/15 01:41:29;;;;;;;23.25;14.70;;;6.80;99.90;;;;;;2606434;47;20233;31
2022/03/15 01:44:04;;;;;;;28.10;16.40;;;6.80;99.90;;;;;;2602541;54;20106;31
2022/03/15 01:46:43;;;;;;;22.60;14.03;;;6.80;99.90;;;;;;2620126;47;20770;31
2022/03/15 01:49:26;;;;;;;21.90;14.37;;;6.80;99.90;;;;;;2700989;39;20533;31
2022/03/15 01:52:02;;;;;;;20.85;14.75;;;6.80;99.90;;;;;;2602458;54;20906;31
2022/03/15 01:54:42;;;;;;;18.40;11.73;;;6.80;99.90;;;;;;2602383;54;20052;31
2022/03/15 01:57:20;;;;;;;20.65;14.82;;;6.80;99.90;;;;;;2602487;54;20027;31
2022/03/15 01:59:55;;;;;;;19.50;13.25;;;6.90;99.90;;;;;;2602414;54;20781;31
2022/03/15 02:02:35;;;;;;;21.90;14.27;;;6.90;99.90;;;;;;2602386;54;20868;31
2022/03/15 02:05:14;;;;;;;20.80;13.50;;;6.90;99.90;;;;;;2601726;54;20707;31
2022/03/15 02:07:53;;;;;;;20.95;13.45;;;6.90;99.90;;;;;;2602613;54;20085;31
2022/03/15 02:10:33;;;;;;;18.33;12.13;;;6.90;99.90;;;;;;2602358;54;20880;31
2022/03/15 02:13:08;;;;;;;17.02;11.45;;;6.90;99.90;;;;;;2602497;54;20864;31
2022/03/15 02:15:43;;;;;;;19.35;13.27;;;6.90;99.90;;;;;;2602180;54;20765;31
2022/03/15 02:18:23;;;;;;;18.27;12.47;;;6.90;99.90;;;;;;2602066;54;20033;31
2022/03/15 02:21:01;;;;;;;19.50;12.93;;;7.00;99.90;;;;;;2602339;54;20872;31
2022/03/15 02:23:37;;;;;;;18.90;12.60;;;7.00;99.90;;;;;;2603170;54;20792;31
2022/03/15 02:26:13;;;;;;;;;;;7.00;99.90;;;;;;2603386;54;20028;31
2022/03/15 02:28:49;;;;;;;17.02;11.27;;;7.00;99.90;;;;;;2602907;54;20787;31
2022/03/15 02:31:28;;;;;;;16.70;11.60;;;7.00;99.90;;;;;;2603090;54;20032;31
2022/03/15 02:34:04;;;;;;;21.20;12.73;;;7.00;99.90;;;;;;2603103;54;20034;31
2022/03/15 02:36:42;;;;;;;14.68;9.82;;;7.00;99.90;;;;;;2621698;46;20023;31
2022/03/15 02:39:17;;;;;;;19.08;12.23;;;7.00;99.90;;;;;;2602872;54;20023;31
2022/03/15 02:41:53;;;;;;;20.35;11.60;;;7.00;99.90;;;;;;2621994;46;20852;31
2022/03/15 02:44:28;;;;;;;19.70;11.80;;;7.00;99.90;;;;;;2603000;54;20850;31
2022/03/15 02:47:04;;;;;;;16.85;11.35;;;6.90;99.90;;;;;;2621523;46;20026;31
2022/03/15 02:49:38;;;;;;;17.42;11.30;;;6.90;99.90;;;;;;2603148;54;21945;31
2022/03/15 02:54:53;;;;;;;17.73;10.67;;;6.90;99.90;;;;;;2603054;54;20022;31
2022/03/15 02:57:28;;;;;;;18.87;11.93;;;6.90;99.90;;;;;;2602988;54;20030;31
2022/03/15 03:00:15;;;;;;;21.17;12.67;;;6.80;99.90;;;;;;2602305;54;20250;31
2022/03/15 03:02:50;;;;;;;17.30;9.60;;;6.70;99.90;;;;;;2602869;54;20259;31
2022/03/15 03:05:28;;;;;;;15.27;8.82;;;6.70;99.90;;;;;;2618259;46;20053;31
2022/03/15 03:08:04;;;;;;;16.30;10.00;;;6.70;99.90;;;;;;2602295;54;20930;31
2022/03/15 03:10:43;;;;;;;15.55;9.32;;;6.70;99.90;;;;;;2621077;46;20033;31
2022/03/15 03:13:20;;;;;;;13.30;9.70;;;6.70;99.90;;;;;;2602017;54;20137;31
2022/03/15 03:15:57;;;;;;;15.85;10.20;;;6.70;99.90;;;;;;2616275;46;21892;31
2022/03/15 03:18:34;;;;;;;20.30;10.43;;;6.70;99.90;;;;;;2601843;54;20102;31
2022/03/15 03:21:12;;;;;;;14.90;8.60;;;6.60;99.90;;;;;;2601864;54;20957;31
2022/03/15 03:23:51;;;;;;;19.40;10.13;;;6.50;99.90;;;;;;2602099;54;20877;31
2022/03/15 03:26:30;;;;;;;16.00;11.40;;;6.50;99.90;;;;;;2602101;54;20998;31
2022/03/15 03:29:09;;;;;;;18.60;10.63;;;6.50;99.90;;;;;;2602362;54;20034;31
2022/03/15 03:31:46;;;;;;;16.60;10.40;;;6.50;99.90;;;;;;2603091;54;20773;31
2022/03/15 03:34:22;;;;;;;16.50;10.82;;;6.50;99.90;;;;;;2602924;54;20027;31
2022/03/15 03:37:00;;;;;;;15.90;10.85;;;6.50;99.90;;;;;;2603102;54;20601;31
2022/03/15 03:39:38;;;;;;;18.53;11.33;;;6.50;99.90;;;;;;2602809;54;20105;31
2022/03/15 03:42:17;;;;;;;16.88;10.82;;;6.50;99.90;;;;;;2602509;54;20888;31
2022/03/15 03:44:53;;;;;;;18.80;10.00;;;6.50;99.90;;;;;;2603017;54;20967;31
2022/03/15 03:47:31;;;;;;;16.33;10.90;;;6.50;99.90;;;;;;2603044;54;20909;31
2022/03/15 03:50:09;;;;;;;17.33;10.98;;;6.50;99.90;;;;;;2603041;54;20034;31
2022/03/15 03:52:47;;;;;;;15.77;10.90;;;6.50;99.90;;;;;;2621423;46;20030;31
2022/03/15 03:55:21;;;;;;;14.43;10.40;;;6.50;99.90;;;;;;2602793;54;20026;31
2022/03/15 03:58:00;;;;;;;15.93;9.87;;;6.50;99.90;;;;;;2621408;46;20033;31
2022/03/15 04:00:36;;;;;;;15.18;10.65;;;6.50;99.90;;;;;;2602006;54;20060;31
2022/03/15 04:03:17;;;;;;;14.70;10.00;;;6.50;99.90;;;;;;2602789;54;20030;31
2022/03/15 04:05:53;;;;;;;15.90;9.93;;;6.50;99.90;;;;;;2601945;54;20026;31
2022/03/15 04:08:31;;;;;;;14.80;9.68;;;6.50;99.90;;;;;;2602175;54;20262;31
2022/03/15 04:11:13;;;;;;;17.20;10.00;;;6.50;99.90;;;;;;2601962;54;20779;31
2022/03/15 04:13:52;;;;;;;15.85;9.30;;;6.50;99.90;;;;;;2602017;54;20033;31
2022/03/15 04:16:31;;;;;;;14.18;8.90;;;6.60;99.90;;;;;;2602957;54;20030;31
2022/03/15 04:19:10;;;;;;;15.38;8.77;;;6.50;99.90;;;;;;2602941;54;20097;31
2022/03/15 04:21:45;;;;;;;16.23;9.10;;;6.50;99.90;;;;;;2602652;54;20033;31
2022/03/15 04:24:20;;;;;;;15.48;9.30;;;6.60;99.90;;;;;;2602974;54;20766;31
2022/03/15 04:26:57;;;;;;;15.20;9.30;;;6.50;99.90;;;;;;2602164;54;20080;31
2022/03/15 04:29:36;;;;;;;14.50;9.00;;;6.50;99.90;;;;;;2602987;54;20869;31
2022/03/15 04:32:12;;;;;;;14.82;8.90;;;6.50;99.90;;;;;;2602478;54;20850;31
2022/03/15 04:34:49;;;;;;;15.48;9.32;;;6.50;99.90;;;;;;2621431;46;20090;31
2022/03/15 04:37:24;;;;;;;16.75;9.00;;;6.50;99.90;;;;;;2602100;54;20030;31
2022/03/15 04:40:02;;;;;;;15.98;9.18;;;6.50;99.90;;;;;;2601657;54;20030;31
2022/03/15 04:42:40;;;;;;;12.80;8.47;;;6.50;99.90;;;;;;2601880;54;20034;31
2022/03/15 04:45:19;;;;;;;16.15;9.27;;;6.50;99.90;;;;;;2602676;54;20941;31
2022/03/15 04:47:55;;;;;;;14.15;9.20;;;6.50;99.90;;;;;;2602565;54;20070;31
2022/03/15 04:50:31;;;;;;;13.60;8.70;;;6.50;99.90;;;;;;2602708;54;20916;31
2022/03/15 04:53:06;;;;;;;;;;;6.50;99.90;;;;;;2602650;54;20596;31
2022/03/15 04:55:40;;;;;;;13.20;9.13;;;6.50;99.90;;;;;;2602847;54;20744;31
2022/03/15 04:58:15;;;;;;;12.30;8.67;;;6.50;99.90;;;;;;2602638;54;20779;31
2022/03/15 05:00:53;;;;;;;15.75;8.80;;;6.50;99.90;;;;;;2602809;54;21204;31
2022/03/15 05:03:29;;;;;;;13.53;8.87;;;6.50;99.90;;;;;;2601774;54;20948;31
2022/03/15 05:06:04;;;;;;;11.37;8.03;;;6.50;99.90;;;;;;2601842;54;20903;31
2022/03/15 05:08:41;;;;;;;11.10;8.10;;;6.50;99.90;;;;;;2602647;54;20049;31
2022/03/15 05:11:20;;;;;;;13.45;8.60;;;6.50;99.90;;;;;;2602553;54;20867;31
2022/03/15 05:13:55;;;;;;;12.43;7.97;;;6.60;99.90;;;;;;2601827;54;20846;31
2022/03/15 05:16:39;;;;;;;13.77;8.87;;;6.60;99.90;;;;;;2602163;54;20045;31
2022/03/15 05:19:15;;;;;;;14.63;8.88;;;6.60;99.90;;;;;;2602483;54;20034;31
2022/03/15 05:21:50;;;;;;;13.23;8.43;;;6.60;99.90;;;;;;2602827;54;20026;31
2022/03/15 05:24:28;;;;;;;12.77;8.55;;;6.70;99.90;;;;;;2601764;54;20235;31
2022/03/15 05:27:06;;;;;;;16.30;9.38;;;6.60;99.90;;;;;;2602746;54;20838;31
2022/03/15 05:29:42;;;;;;;12.38;8.60;;;6.70;99.90;;;;;;2601858;54;20035;31
2022/03/15 05:32:20;;;;;;;11.60;8.30;;;6.80;99.90;;;;;;2620917;46;20049;31
2022/03/15 05:34:57;;;;;;;15.30;8.90;;;6.70;99.90;;;;;;2602564;54;20030;31
2022/03/15 05:37:34;;;;;;;13.55;9.23;;;6.70;99.90;;;;;;2602646;54;21927;31
2022/03/15 05:40:14;;;;;;;12.57;8.73;;;6.70;99.90;;;;;;2602476;54;20116;31
2022/03/15 05:42:49;;;;;;;15.43;9.48;;;6.70;99.90;;;;;;2602569;54;20919;31
2022/03/15 05:45:25;;;;;;;19.43;10.57;;;6.70;99.90;;;;;;2603464;54;20030;31
2022/03/15 05:48:04;;;;;;;19.35;9.55;;;6.70;99.90;;;;;;2602456;54;20267;31
2022/03/15 05:50:39;;;;;;;15.35;9.05;;;6.70;99.90;;;;;;2602305;54;20951;31
2022/03/15 05:53:15;;;;;;;17.50;9.20;;;6.70;99.90;;;;;;2603324;54;20834;31
2022/03/15 05:55:50;;;;;;;14.05;9.60;;;6.70;99.90;;;;;;2603371;54;20022;31
2022/03/15 05:58:27;;;;;;;17.45;9.15;;;6.90;99.90;;;;;;2603301;54;20030;31
2022/03/15 06:01:02;;;;;;;14.75;8.95;;;6.90;99.90;;;;;;2602428;54;20026;31
2022/03/15 06:03:41;;;;;;;16.00;8.90;;;7.10;99.90;;;;;;2603353;54;20896;31
2022/03/15 06:06:18;;;;;;;15.65;8.95;;;7.30;99.90;;;;;;2603460;54;20031;31
2022/03/15 06:08:53;;;;;;;13.07;8.90;;;7.60;99.90;;;;;;2603164;54;20031;31
2022/03/15 06:11:32;;;;;;;14.03;9.67;;;7.80;99.90;;;;;;2621562;46;20387;31
2022/03/15 06:14:07;;;;;;;14.55;8.65;;;8.20;99.90;;;;;;2603131;54;20022;31
2022/03/15 06:16:42;;;;;;;15.70;9.47;;;8.60;99.90;;;;;;2603229;54;20906;31
2022/03/15 06:19:21;;;;;;;13.33;10.53;;;8.90;99.90;;;;;;2603104;54;20128;31
2022/03/15 06:22:02;;;;;;;13.65;9.45;;;9.30;99.90;;;;;;2602505;54;20745;31
2022/03/15 06:24:39;;;;;;;17.25;10.35;;;9.60;99.90;;;;;;2603195;54;20088;31
2022/03/15 06:27:14;;;;;;;15.93;10.00;;;10.00;99.90;;;;;;2602912;54;20054;31
2022/03/15 06:29:51;;;;;;;13.75;9.90;;;10.40;99.90;;;;;;2603033;54;20779;31
2022/03/15 06:32:29;;;;;;;14.40;10.65;;;10.70;99.90;;;;;;2603119;54;21202;31
2022/03/15 06:35:08;;;;;;;18.48;11.15;;;11.00;99.90;;;;;;2603154;54;20054;31
2022/03/15 06:37:44;;;;;;;17.17;10.95;;;11.20;99.90;;;;;;2603093;54;21245;31
2022/03/15 06:40:25;;;;;;;16.80;9.43;;;11.50;99.90;;;;;;2603020;54;20026;31
2022/03/15 06:43:02;;;;;;;15.18;9.93;;;11.80;99.90;;;;;;2602851;54;21068;31
2022/03/15 06:45:36;;;;;;;17.90;10.83;;;12.10;99.90;;;;;;2603068;54;20033;31
2022/03/15 06:48:11;;;;;;;16.15;9.60;;;12.40;99.90;;;;;;2602906;54;20084;31
2022/03/15 06:50:53;;;;;;;16.70;10.10;;;12.70;99.90;;;;;;2603086;54;20147;31
2022/03/15 06:53:29;;;;;;;13.38;10.25;;;12.80;99.90;;;;;;2603154;54;20034;31
2022/03/15 06:56:05;;;;;;;13.55;9.95;;;13.10;99.90;;;;;;2603022;54;20026;31
2022/03/15 06:58:40;;;;;;;17.83;9.68;;;13.20;99.90;;;;;;2603377;54;22467;31
2022/03/15 07:01:15;;;;;;;14.10;9.05;;;13.40;99.90;;;;;;2603296;54;20027;31
2022/03/15 07:03:51;;;;;;;16.25;8.85;;;13.50;99.90;;;;;;2602403;54;20034;31
2022/03/15 07:06:30;;;;;;;15.75;8.95;;;13.80;99.90;;;;;;2621391;46;20943;31
2022/03/15 07:09:08;;;;;;;19.23;9.57;;;14.00;99.90;;;;;;2602561;54;20242;31
2022/03/15 07:11:44;;;;;;;15.15;9.32;;;14.00;99.90;;;;;;2602488;54;20301;31
2022/03/15 07:14:20;;;;;;;16.65;10.00;;;14.00;99.90;;;;;;2603349;54;20912;31
2022/03/15 07:16:55;;;;;;;15.70;10.30;;;14.00;99.90;;;;;;2603465;54;20775;31
2022/03/15 07:19:31;;;;;;;17.60;9.93;;;13.90;99.90;;;;;;2603168;54;20042;31
2022/03/15 07:22:10;;;;;;;16.25;9.77;;;14.00;99.90;;;;;;2602371;54;20057;31
2022/03/15 07:24:46;;;;;;;15.80;10.02;;;14.20;99.90;;;;;;2603279;54;20852;31
2022/03/15 07:27:21;;;;;;;16.90;9.65;;;14.30;99.90;;;;;;2603094;54;20826;31
2022/03/15 07:29:58;;;;;;;17.92;9.98;;;14.40;99.90;;;;;;2603424;54;20049;31
2022/03/15 07:32:33;;;;;;;14.93;9.25;;;14.50;99.90;;;;;;2603051;54;20830;31
2022/03/15 07:35:10;;;;;;;19.90;10.05;;;14.50;99.90;;;;;;2603170;54;20859;31
2022/03/15 07:37:55;;;;;;;15.80;9.70;;;14.50;99.90;;;;;;2603283;54;20920;31
2022/03/15 07:40:33;;;;;;;20.35;10.20;;;14.50;99.90;;;;;;2603308;54;20027;31
2022/03/15 07:43:07;;;;;;;20.13;12.37;;;14.70;99.90;;;;;;2621509;46;20023;31
2022/03/15 07:45:43;;;;;;;24.17;14.50;;;14.90;99.90;;;;;;2603129;54;20907;31
2022/03/15 07:48:22;;;;;;;14.85;10.45;;;15.20;99.90;;;;;;2603170;54;20859;31
2022/03/15 07:50:58;;;;;;;15.60;10.50;;;15.30;99.90;;;;;;2603195;54;20884;31
2022/03/15 07:53:39;;;;;;;16.05;9.75;;;15.70;99.90;;;;;;2602926;54;20027;31
2022/03/15 07:56:14;;;;;;;14.63;8.55;;;15.80;99.90;;;;;;2603276;54;20814;31
2022/03/15 07:58:49;;;;;;;18.40;9.70;;;15.80;99.90;;;;;;2603109;54;20878;31
2022/03/15 08:01:24;;;;;;;16.00;9.13;;;15.90;99.90;;;;;;2602432;54;20738;31
2022/03/15 08:03:59;;;;;;;17.30;9.15;;;16.10;99.90;;;;;;2602918;54;20302;31
2022/03/15 08:06:35;;;;;;;13.93;9.02;;;16.20;99.90;;;;;;2621214;46;20033;31
2022/03/15 08:09:14;;;;;;;14.90;9.70;;;16.50;99.90;;;;;;2621435;46;20102;31
2022/03/15 08:11:50;;;;;;;17.85;9.75;;;16.60;99.90;;;;;;2602963;54;20889;31
2022/03/15 08:14:25;;;;;;;17.65;9.20;;;16.70;99.90;;;;;;2602908;54;20874;31
2022/03/15 08:17:07;;;;;;;16.40;9.88;;;16.90;99.90;;;;;;2603219;54;20027;31
2022/03/15 08:19:43;;;;;;;15.15;8.73;;;17.00;99.90;;;;;;2602930;54;20026;31
2022/03/15 08:22:19;;;;;;;16.20;8.98;;;17.20;99.90;;;;;;2603182;54;20027;31
2022/03/15 08:24:56;;;;;;;13.73;8.82;;;17.30;99.90;;;;;;2602326;54;20034;31
2022/03/15 08:27:31;;;;;;;13.27;8.55;;;17.40;99.90;;;;;;2603174;54;20034;31
2022/03/15 08:30:10;;;;;;;14.88;9.57;;;17.50;99.90;;;;;;2621398;46;20030;31
2022/03/15 08:32:44;;;;;;;13.75;9.50;;;17.60;99.90;;;;;;2603235;54;20033;31
2022/03/15 08:35:21;;;;;;;16.27;9.98;;;17.70;99.90;;;;;;2602981;54;20849;31
2022/03/15 08:37:56;;;;;;;17.55;10.00;;;17.80;99.90;;;;;;2621397;46;20030;31
2022/03/15 08:40:35;;;;;;;17.00;10.90;;;17.80;99.70;;;;;;2602958;54;20026;31
2022/03/15 08:43:11;;;;;;;17.05;10.55;;;17.80;99.60;;;;;;2602950;54;20165;31
2022/03/15 08:45:47;;;;;;;20.20;11.20;;;17.90;99.80;;;;;;2602982;54;20027;31
2022/03/15 08:48:22;;;;;;;17.87;11.33;;;18.10;99.80;;;;;;2621412;46;20089;31
2022/03/15 08:51:00;;;;;;;17.40;12.48;;;18.10;99.20;;;;;;2602927;54;20092;31
2022/03/15 08:53:37;;;;;;;17.00;12.37;;;18.30;98.90;;;;;;2603094;54;20723;31
2022/03/15 08:56:15;;;;;;;16.85;11.90;;;18.40;98.90;;;;;;2602890;54;20053;31
2022/03/15 08:58:53;;;;;;;18.00;12.25;;;18.50;98.50;;;;;;2602843;54;20033;31
2022/03/15 09:01:27;;;;;;;24.40;11.97;;;18.50;98.60;;;;;;2602961;54;20723;31
2022/03/15 09:04:07;;;;;;;17.90;13.47;;;18.60;98.10;;;;;;2602790;54;20108;31
2022/03/15 09:06:45;;;;;;;18.23;13.63;;;18.60;97.60;;;;;;2621216;46;20027;31
2022/03/15 09:09:22;;;;;;;19.30;14.65;;;18.60;97.50;;;;;;2603060;54;20062;31
2022/03/15 09:12:03;;;;;;;23.67;15.88;;;18.50;97.10;;;;;;2602718;54;20877;31
2022/03/15 09:14:39;;;;;;;17.88;13.95;;;18.50;97.60;;;;;;2621472;46;20867;31
2022/03/15 09:17:17;;;;;;;17.05;14.75;;;18.50;97.10;;;;;;2602663;54;20034;31
2022/03/15 09:19:53;;;;;;;19.35;15.75;;;18.60;97.00;;;;;;2602747;54;20908;31
2022/03/15 09:22:30;;;;;;;21.70;16.20;;;18.80;96.60;;;;;;2602819;54;20042;31
2022/03/15 09:25:05;;;;;;;27.45;21.73;;;18.80;96.70;;;;;;2719475;39;20642;31
2022/03/15 09:27:47;;;;;;;23.47;17.03;;;18.70;96.20;;;;;;2602468;54;20038;31
2022/03/15 09:30:22;;;;;;;21.85;18.25;;;18.80;96.50;;;;;;2602849;54;20255;31
2022/03/15 09:32:56;;;;;;;22.20;17.00;;;18.80;96.10;;;;;;2602845;54;22384;31
2022/03/15 09:35:28;;;;;;;18.67;16.80;;;18.80;96.20;;;;;;2621253;46;22369;31
2022/03/15 09:38:06;;;;;;;21.15;17.90;;;18.80;95.90;;;;;;2602994;54;20038;31
2022/03/15 09:40:41;;;;;;;23.63;19.73;;;18.80;95.70;;;;;;2602666;54;20083;31
2022/03/15 09:43:18;;;;;;;20.05;15.27;;;18.70;96.10;;;;;;2602662;54;20814;31
2022/03/15 09:45:56;;;;;;;23.40;16.50;;;18.70;95.30;;;;;;2620881;47;20031;31
2022/03/15 09:48:53;;;;;;;19.25;14.95;;;18.60;95.90;;;;;;2602780;54;20100;31
2022/03/15 09:51:32;;;;;;;22.77;20.48;;;18.70;95.40;;;;;;2621329;47;20062;31
2022/03/15 09:54:10;;;;;;;20.70;15.15;;;18.80;95.70;;;;;;2602340;54;20026;31
2022/03/15 09:56:47;;;;;;;16.77;14.35;;;18.90;94.70;;;;;;2602563;54;20059;31
2022/03/15 09:59:20;;;;;;;24.60;15.15;;;19.00;95.20;;;;;;2602629;54;20038;31
2022/03/15 10:02:00;;;;;;;20.42;15.50;;;19.00;94.80;;;;;;2602010;54;20770;31
2022/03/15 10:04:35;;;;;;;19.35;14.93;;;19.00;94.20;;;;;;2602526;54;20022;31
2022/03/15 10:07:11;;;;;;;20.00;15.20;;;19.00;95.00;;;;;;2601981;54;20022;31
2022/03/15 10:09:47;;;;;;;23.48;15.32;;;19.20;94.10;;;;;;2602376;54;20058;31
2022/03/15 10:12:23;;;;;;;20.10;14.45;;;19.30;94.10;;;;;;2602860;54;20034;31
2022/03/15 10:14:59;;;;;;;19.60;14.60;;;19.20;93.70;;;;;;2602646;54;20899;31
2022/03/15 10:18:08;;;;;;;18.63;14.13;;;19.10;93.50;;;;;;2602644;54;20026;31
2022/03/15 10:20:45;;;;;;;17.08;13.32;;;19.10;94.10;;;;;;2602404;54;21080;31
2022/03/15 10:23:29;;;;;;;45.88;15.43;;;19.20;93.50;;;;;;2620934;47;20030;31
2022/03/15 10:26:07;;;;;;;17.80;13.68;;;19.30;93.10;;;;;;2602619;54;20031;31
2022/03/15 10:28:47;;;;;;;21.40;14.02;;;19.30;92.60;;;;;;2602795;54;20868;31
2022/03/15 10:31:23;;;;;;;19.27;14.93;;;19.20;92.30;;;;;;2603333;54;20038;31
2022/03/15 10:34:04;;;;;;;16.83;13.87;;;19.20;92.40;;;;;;2603428;54;20863;31
2022/03/15 10:36:42;;;;;;;20.02;13.00;;;19.00;91.70;;;;;;2603123;54;20244;31
2022/03/15 10:39:17;;;;;;;18.88;12.70;;;18.80;92.10;;;;;;2603558;54;20134;31
2022/03/15 10:41:52;;;;;;;17.58;12.35;;;18.80;92.10;;;;;;2603160;54;20031;31
2022/03/15 10:44:29;;;;;;;18.67;12.20;;;18.80;91.80;;;;;;2603482;54;20034;31
2022/03/15 10:47:07;;;;;;;16.17;11.82;;;18.90;91.80;;;;;;2603364;54;20033;31
2022/03/15 10:49:54;;;;;;;17.30;12.70;;;18.90;91.40;;;;;;2603195;54;20057;31
2022/03/15 10:52:33;;;;;;;18.50;12.30;;;18.80;91.30;;;;;;2603197;54;20030;31
2022/03/15 10:55:15;;;;;;;18.45;11.90;;;18.70;91.10;;;;;;2621941;46;20919;31
2022/03/15 10:57:51;;;;;;;21.55;12.00;;;18.70;91.20;;;;;;2603188;54;20753;31
2022/03/15 11:00:27;;;;;;;17.23;12.13;;;18.80;91.40;;;;;;2621572;46;20034;31
2022/03/15 11:03:03;;;;;;;15.05;10.70;;;18.80;90.80;;;;;;2621641;46;20042;31
2022/03/15 11:05:43;;;;;;;13.45;9.80;;;18.80;91.30;;;;;;2603212;54;20894;31
2022/03/15 11:08:22;;;;;;;14.60;10.45;;;18.90;91.20;;;;;;2603575;54;20890;31
2022/03/15 11:11:06;;;;;;;15.80;11.65;;;18.90;91.00;;;;;;2603126;54;20034;31
2022/03/15 11:13:44;;;;;;;18.30;11.75;;;18.90;90.90;;;;;;2603308;54;20754;31
2022/03/15 11:16:20;;;;;;;14.10;9.65;;;18.90;90.30;;;;;;2603206;54;20030;31
2022/03/15 11:18:56;;;;;;;13.17;9.70;;;18.80;89.50;;;;;;2603385;54;20870;31
2022/03/15 11:21:35;;;;;;;12.73;8.88;;;18.60;89.30;;;;;;2603156;54;20854;31
2022/03/15 11:24:11;;;;;;;14.68;11.10;;;18.50;88.90;;;;;;2603082;54;20030;31
2022/03/15 11:26:49;;;;;;;14.95;11.52;;;18.40;89.60;;;;;;2603144;54;20905;31
2022/03/15 11:29:25;;;;;;;13.75;9.00;;;18.40;90.10;;;;;;2621942;46;20826;31
2022/03/15 11:32:01;;;;;;;14.07;8.75;;;18.40;88.70;;;;;;2603072;54;20723;31
2022/03/15 11:34:37;;;;;;;13.45;8.18;;;18.50;88.40;;;;;;2603119;54;20838;31
2022/03/15 11:37:17;;;;;;;11.83;9.17;;;18.50;87.90;;;;;;2621620;46;20842;31
2022/03/15 11:39:52;;;;;;;14.73;10.63;;;18.40;87.30;;;;;;2603020;54;20111;31
2022/03/15 11:42:27;;;;;;;15.50;9.57;;;18.30;88.90;;;;;;2602750;54;20868;31
2022/03/15 11:45:06;;;;;;;19.98;11.05;;;18.30;88.00;;;;;;2603099;54;20826;31
2022/03/15 11:47:46;;;;;;;17.85;12.70;;;18.20;90.20;;;;;;2603274;54;20116;31
2022/03/15 11:50:23;;;;;;;15.40;12.32;;;18.10;90.10;;;;;;2602436;54;20051;31
2022/03/15 11:53:07;;;;;;;18.17;11.75;;;18.10;90.10;;;;;;2603004;54;20034;31
2022/03/15 11:55:49;;;;;;;18.20;12.75;;;18.00;89.50;;;;;;2603110;54;20846;31
2022/03/15 11:58:27;;;;;;;18.47;12.70;;;18.00;88.70;;;;;;2603250;54;20878;31
2022/03/15 12:01:12;;;;;;;19.00;12.15;;;17.90;89.60;;;;;;2603290;54;20249;31
2022/03/15 12:03:47;;;;;;;16.45;11.60;;;18.00;88.70;;;;;;2621591;46;20038;31
2022/03/15 12:06:23;;;;;;;21.05;10.85;;;17.90;89.40;;;;;;2603345;54;20050;31
2022/03/15 12:09:15;;;;;;;12.57;9.07;;;17.80;87.90;;;;;;2603265;54;20250;31
2022/03/15 12:14:29;;;;;;;15.30;9.55;;;17.60;88.00;;;;;;2603022;54;20081;31
2022/03/15 12:17:05;;;;;;;11.68;9.02;;;17.50;88.50;;;;;;2603187;54;20916;31
2022/03/15 12:19:44;;;;;;;;;;;17.50;88.90;;;;;;2620475;46;20026;31
2022/03/15 12:22:27;;;;;;;15.60;9.70;;;17.60;89.30;;;;;;2602815;54;19958;31
2022/03/15 12:25:06;;;;;;;17.10;8.30;;;17.50;90.10;;;;;;2603014;54;20966;31
2022/03/15 12:28:04;;;;;;;14.23;7.68;;;17.50;90.40;;;;;;2602750;54;20968;31
2022/03/15 12:30:53;;;;;;;12.95;9.20;;;17.60;90.30;;;;;;2602984;54;20156;31
2022/03/15 12:33:28;;;;;;;20.00;9.07;;;17.60;89.80;;;;;;2602630;54;20035;31
2022/03/15 12:36:07;;;;;;;15.88;10.40;;;17.50;89.80;;;;;;2602756;54;20825;31
2022/03/15 12:38:43;;;;;;;12.05;9.05;;;17.50;88.80;;;;;;2603013;54;20089;31
2022/03/15 12:41:18;;;;;;;15.63;9.43;;;17.40;89.80;;;;;;2602936;54;20026;31
2022/03/15 12:43:56;;;;;;;15.10;9.40;;;17.30;86.40;;;;;;2621289;46;20081;31
2022/03/15 12:46:35;;;;;;;12.70;8.38;;;17.20;86.70;;;;;;2602854;54;20022;31
2022/03/15 12:49:11;;;;;;;15.37;10.07;;;17.10;88.70;;;;;;2603082;54;20735;31
2022/03/15 12:51:50;;;;;;;11.25;8.07;;;17.10;88.80;;;;;;2602902;54;20057;31
2022/03/15 12:54:28;;;;;;;12.20;7.95;;;17.20;88.60;;;;;;2602984;54;20031;31
2022/03/15 12:57:10;;;;;;;12.77;7.80;;;17.20;88.90;;;;;;2602567;54;20061;31
2022/03/15 12:59:55;;;;;;;10.15;6.03;;;17.20;87.80;;;;;;2603105;54;20842;31
2022/03/15 13:02:36;;;;;;;9.90;7.35;;;17.20;86.40;;;;;;2602871;54;20027;31
2022/03/15 13:05:17;;;;;;;20.50;8.02;;;17.10;87.70;;;;;;2602197;54;20818;31
2022/03/15 13:07:56;;;;;;;10.68;6.00;;;17.00;87.20;;;;;;2603063;54;20824;31
2022/03/15 13:10:37;;;;;;;12.55;5.95;;;16.90;88.20;;;;;;2621374;46;20026;31
2022/03/15 13:13:27;;;;;;;13.07;6.95;;;16.90;87.90;;;;;;2621395;46;20103;31
2022/03/15 13:16:03;;;;;;;10.98;7.35;;;16.90;87.10;;;;;;2603058;54;20750;31
2022/03/15 13:18:44;;;;;;;10.10;7.25;;;16.90;86.50;;;;;;2602850;54;20034;31
2022/03/15 13:21:20;;;;;;;11.52;6.88;;;16.90;87.20;;;;;;2621397;46;20746;31
2022/03/15 13:23:57;;;;;;;;;;;16.90;87.90;;;;;;2603158;54;20911;31
2022/03/15 13:26:31;;;;;;;;;;;16.90;87.60;;;;;;2603019;54;19977;31
2022/03/15 13:29:09;;;;;;;9.35;6.05;;;17.00;87.50;;;;;;2602959;54;19958;31
2022/03/15 13:31:45;;;;;;;9.83;5.47;;;17.00;87.30;;;;;;2621315;46;20037;31
2022/03/15 13:34:19;;;;;;;;;;;17.00;87.60;;;;;;2603077;54;20097;31
2022/03/15 13:36:57;;;;;;;11.65;7.03;;;17.00;86.80;;;;;;2602627;54;20720;31
2022/03/15 13:39:32;;;;;;;13.40;6.40;;;16.90;86.20;;;;;;2602676;54;20034;31
2022/03/15 13:42:10;;;;;;;11.00;6.93;;;16.90;87.20;;;;;;2602966;54;20027;31
2022/03/15 13:44:47;;;;;;;10.32;7.47;;;16.90;86.20;;;;;;2602756;54;20739;31
2022/03/15 13:47:25;;;;;;;11.73;6.72;;;16.90;86.20;;;;;;2602616;54;20522;31
2022/03/15 13:50:00;;;;;;;11.77;7.18;;;16.80;86.10;;;;;;2602852;54;20038;31